sensor_id;sensor_type;location;lat;lon;timestamp;P1;durP1;ratioP1;P2;durP2;ratioP2
47025;SDS011;32783;51.756;-2.556;2023-07-31T00:01:46;0.90;;;0.80;;
47025;SDS011;32783;51.756;-2.556;2023-07-31T00:04:12;0.70;;;0.70;;
47025;SDS011;32783;51.756;-2.556;2023-07-31T00:06:37;0.93;;;0.73;;
47025;SDS011;32783;51.756;-2.556;2023-07-31T00:09:02;0.70;;;0.60;;
47025;SDS011;32783;51.756;-2.556;2023-07-31T00:11:28;1.63;;;0.90;;
47025;SDS011;32783;51.756;-2.556;2023-07-31T00:13:53;0.90;;;0.75;;
47025;SDS011;32783;51.756;-2.556;2023-07-31T00:16:18;1.15;;;0.80;;
47025;SDS011;32783;51.756;-2.556;2023-07-31T00:18:44;0.90;;;0.90;;
47025;SDS011;32783;51.756;-2.556;2023-07-31T00:21:09;0.57;;;0.47;;
47025;SDS011;32783;51.756;-2.556;2023-07-31T00:23:35;0.98;;;0.70;;
47025;SDS011;32783;51.756;-2.556;2023-07-31T00:26:00;0.70;;;0.60;;
47025;SDS011;32783;51.756;-2.556;2023-07-31T00:28:25;0.40;;;0.40;;
47025;SDS011;32783;51.756;-2.556;2023-07-31T00:30:51;1.00;;;0.80;;
47025;SDS011;32783;51.756;-2.556;2023-07-31T00:33:17;0.90;;;0.70;;
47025;SDS011;32783;51.756;-2.556;2023-07-31T00:35:42;1.40;;;0.70;;
47025;SDS011;32783;51.756;-2.556;2023-07-31T00:38:07;0.70;;;0.70;;
47025;SDS011;32783;51.756;-2.556;2023-07-31T00:40:36;0.55;;;0.50;;
47025;SDS011;32783;51.756;-2.556;2023-07-31T00:43:02;1.10;;;0.57;;
47025;SDS011;32783;51.756;-2.556;2023-07-31T00:45:28;0.32;;;0.32;;
47025;SDS011;32783;51.756;-2.556;2023-07-31T00:47:53;0.60;;;0.60;;
47025;SDS011;32783;51.756;-2.556;2023-07-31T00:50:19;0.40;;;0.40;;
47025;SDS011;32783;51.756;-2.556;2023-07-31T00:52:44;0.75;;;0.35;;
47025;SDS011;32783;51.756;-2.556;2023-07-31T00:55:09;0.90;;;0.47;;
47025;SDS011;32783;51.756;-2.556;2023-07-31T00:57:35;1.88;;;0.75;;
47025;SDS011;32783;51.756;-2.556;2023-07-31T01:00:02;1.50;;;0.60;;
47025;SDS011;32783;51.756;-2.556;2023-07-31T01:02:28;0.80;;;0.60;;
47025;SDS011;32783;51.756;-2.556;2023-07-31T01:04:54;0.60;;;0.50;;
47025;SDS011;32783;51.756;-2.556;2023-07-31T01:07:26;0.77;;;0.60;;
47025;SDS011;32783;51.756;-2.556;2023-07-31T01:12:36;0.47;;;0.47;;
47025;SDS011;32783;51.756;-2.556;2023-07-31T01:15:06;0.57;;;0.50;;
47025;SDS011;32783;51.756;-2.556;2023-07-31T01:17:36;0.40;;;0.30;;
47025;SDS011;32783;51.756;-2.556;2023-07-31T01:20:10;1.77;;;0.75;;
47025;SDS011;32783;51.756;-2.556;2023-07-31T01:28:14;0.88;;;0.40;;
47025;SDS011;32783;51.756;-2.556;2023-07-31T01:30:46;0.77;;;0.40;;
47025;SDS011;32783;51.756;-2.556;2023-07-31T01:33:13;0.43;;;0.33;;
47025;SDS011;32783;51.756;-2.556;2023-07-31T01:35:42;0.20;;;0.20;;
47025;SDS011;32783;51.756;-2.556;2023-07-31T01:38:09;1.60;;;0.40;;
47025;SDS011;32783;51.756;-2.556;2023-07-31T01:40:35;0.32;;;0.30;;
47025;SDS011;32783;51.756;-2.556;2023-07-31T01:43:00;0.30;;;0.30;;
47025;SDS011;32783;51.756;-2.556;2023-07-31T01:45:26;0.70;;;0.70;;
47025;SDS011;32783;51.756;-2.556;2023-07-31T01:47:51;0.80;;;0.40;;
47025;SDS011;32783;51.756;-2.556;2023-07-31T01:50:17;0.52;;;0.43;;
47025;SDS011;32783;51.756;-2.556;2023-07-31T01:52:42;0.30;;;0.30;;
47025;SDS011;32783;51.756;-2.556;2023-07-31T01:55:07;0.40;;;0.32;;
47025;SDS011;32783;51.756;-2.556;2023-07-31T01:57:33;0.63;;;0.50;;
47025;SDS011;32783;51.756;-2.556;2023-07-31T01:59:58;1.60;;;0.30;;
47025;SDS011;32783;51.756;-2.556;2023-07-31T02:02:24;0.55;;;0.40;;
47025;SDS011;32783;51.756;-2.556;2023-07-31T02:04:49;0.50;;;0.30;;
47025;SDS011;32783;51.756;-2.556;2023-07-31T02:07:14;0.32;;;0.30;;
47025;SDS011;32783;51.756;-2.556;2023-07-31T02:09:40;0.50;;;0.30;;
47025;SDS011;32783;51.756;-2.556;2023-07-31T02:12:05;0.50;;;0.40;;
47025;SDS011;32783;51.756;-2.556;2023-07-31T02:14:33;0.30;;;0.30;;
47025;SDS011;32783;51.756;-2.556;2023-07-31T02:16:59;0.30;;;0.30;;
47025;SDS011;32783;51.756;-2.556;2023-07-31T02:19:24;0.35;;;0.30;;
47025;SDS011;32783;51.756;-2.556;2023-07-31T02:21:49;0.20;;;0.20;;
47025;SDS011;32783;51.756;-2.556;2023-07-31T02:24:15;0.28;;;0.20;;
47025;SDS011;32783;51.756;-2.556;2023-07-31T02:26:40;0.50;;;0.50;;
47025;SDS011;32783;51.756;-2.556;2023-07-31T02:29:07;0.40;;;0.40;;
47025;SDS011;32783;51.756;-2.556;2023-07-31T02:31:32;0.50;;;0.30;;
47025;SDS011;32783;51.756;-2.556;2023-07-31T02:33:58;0.20;;;0.20;;
47025;SDS011;32783;51.756;-2.556;2023-07-31T02:36:23;0.47;;;0.43;;
47025;SDS011;32783;51.756;-2.556;2023-07-31T02:38:48;0.40;;;0.30;;
47025;SDS011;32783;51.756;-2.556;2023-07-31T02:41:14;0.30;;;0.30;;
47025;SDS011;32783;51.756;-2.556;2023-07-31T02:43:39;0.20;;;0.20;;
47025;SDS011;32783;51.756;-2.556;2023-07-31T02:46:05;0.40;;;0.20;;
47025;SDS011;32783;51.756;-2.556;2023-07-31T02:48:30;0.40;;;0.30;;
47025;SDS011;32783;51.756;-2.556;2023-07-31T02:50:55;0.50;;;0.30;;
47025;SDS011;32783;51.756;-2.556;2023-07-31T02:53:21;0.45;;;0.35;;
47025;SDS011;32783;51.756;-2.556;2023-07-31T02:55:48;0.30;;;0.25;;
47025;SDS011;32783;51.756;-2.556;2023-07-31T02:58:13;0.30;;;0.22;;
47025;SDS011;32783;51.756;-2.556;2023-07-31T03:00:42;0.40;;;0.30;;
47025;SDS011;32783;51.756;-2.556;2023-07-31T03:03:08;0.20;;;0.20;;
47025;SDS011;32783;51.756;-2.556;2023-07-31T03:05:33;0.32;;;0.22;;
47025;SDS011;32783;51.756;-2.556;2023-07-31T03:07:58;0.50;;;0.30;;
47025;SDS011;32783;51.756;-2.556;2023-07-31T03:10:24;0.32;;;0.30;;
47025;SDS011;32783;51.756;-2.556;2023-07-31T03:12:49;0.15;;;0.13;;
47025;SDS011;32783;51.756;-2.556;2023-07-31T03:15:15;0.20;;;0.20;;
47025;SDS011;32783;51.756;-2.556;2023-07-31T03:17:40;0.50;;;0.30;;
47025;SDS011;32783;51.756;-2.556;2023-07-31T03:20:06;0.30;;;0.30;;
47025;SDS011;32783;51.756;-2.556;2023-07-31T03:22:31;0.40;;;0.32;;
47025;SDS011;32783;51.756;-2.556;2023-07-31T03:24:57;0.63;;;0.45;;
47025;SDS011;32783;51.756;-2.556;2023-07-31T03:27:22;0.30;;;0.25;;
47025;SDS011;32783;51.756;-2.556;2023-07-31T03:29:47;0.30;;;0.30;;
47025;SDS011;32783;51.756;-2.556;2023-07-31T03:32:14;0.20;;;0.20;;
47025;SDS011;32783;51.756;-2.556;2023-07-31T03:34:40;0.52;;;0.40;;
47025;SDS011;32783;51.756;-2.556;2023-07-31T03:37:05;0.43;;;0.30;;
47025;SDS011;32783;51.756;-2.556;2023-07-31T03:39:30;0.52;;;0.45;;
47025;SDS011;32783;51.756;-2.556;2023-07-31T03:41:56;0.60;;;0.40;;
47025;SDS011;32783;51.756;-2.556;2023-07-31T03:44:21;0.70;;;0.40;;
47025;SDS011;32783;51.756;-2.556;2023-07-31T03:46:46;0.30;;;0.30;;
47025;SDS011;32783;51.756;-2.556;2023-07-31T03:49:12;0.70;;;0.50;;
47025;SDS011;32783;51.756;-2.556;2023-07-31T03:51:37;0.90;;;0.70;;
47025;SDS011;32783;51.756;-2.556;2023-07-31T03:54:03;0.65;;;0.60;;
47025;SDS011;32783;51.756;-2.556;2023-07-31T03:56:28;2.13;;;0.68;;
47025;SDS011;32783;51.756;-2.556;2023-07-31T03:58:53;0.88;;;0.77;;
47025;SDS011;32783;51.756;-2.556;2023-07-31T04:01:19;0.80;;;0.80;;
47025;SDS011;32783;51.756;-2.556;2023-07-31T04:03:44;0.70;;;0.70;;
47025;SDS011;32783;51.756;-2.556;2023-07-31T04:06:10;0.90;;;0.80;;
47025;SDS011;32783;51.756;-2.556;2023-07-31T04:08:35;0.90;;;0.73;;
47025;SDS011;32783;51.756;-2.556;2023-07-31T04:11:01;0.77;;;0.70;;
47025;SDS011;32783;51.756;-2.556;2023-07-31T04:13:26;2.00;;;1.02;;
47025;SDS011;32783;51.756;-2.556;2023-07-31T04:15:53;0.80;;;0.80;;
47025;SDS011;32783;51.756;-2.556;2023-07-31T04:18:19;1.10;;;1.00;;
47025;SDS011;32783;51.756;-2.556;2023-07-31T04:20:45;0.88;;;0.88;;
47025;SDS011;32783;51.756;-2.556;2023-07-31T04:23:10;1.10;;;1.00;;
47025;SDS011;32783;51.756;-2.556;2023-07-31T04:25:35;1.20;;;0.90;;
47025;SDS011;32783;51.756;-2.556;2023-07-31T04:28:01;1.08;;;0.98;;
47025;SDS011;32783;51.756;-2.556;2023-07-31T04:30:26;0.95;;;0.77;;
47025;SDS011;32783;51.756;-2.556;2023-07-31T04:32:52;1.02;;;0.93;;
47025;SDS011;32783;51.756;-2.556;2023-07-31T04:35:17;1.10;;;1.00;;
47025;SDS011;32783;51.756;-2.556;2023-07-31T04:37:42;1.27;;;1.17;;
47025;SDS011;32783;51.756;-2.556;2023-07-31T04:40:09;0.90;;;0.70;;
47025;SDS011;32783;51.756;-2.556;2023-07-31T04:42:35;1.25;;;1.00;;
47025;SDS011;32783;51.756;-2.556;2023-07-31T04:45:00;0.98;;;0.90;;
47025;SDS011;32783;51.756;-2.556;2023-07-31T04:47:26;1.35;;;1.20;;
47025;SDS011;32783;51.756;-2.556;2023-07-31T04:49:51;1.73;;;1.27;;
47025;SDS011;32783;51.756;-2.556;2023-07-31T04:52:16;1.15;;;0.90;;
47025;SDS011;32783;51.756;-2.556;2023-07-31T04:54:42;1.13;;;1.02;;
47025;SDS011;32783;51.756;-2.556;2023-07-31T04:57:07;1.17;;;1.08;;
47025;SDS011;32783;51.756;-2.556;2023-07-31T04:59:32;1.30;;;0.90;;
47025;SDS011;32783;51.756;-2.556;2023-07-31T05:01:58;1.20;;;1.00;;
47025;SDS011;32783;51.756;-2.556;2023-07-31T05:04:23;1.23;;;1.05;;
47025;SDS011;32783;51.756;-2.556;2023-07-31T05:06:48;1.17;;;1.00;;
47025;SDS011;32783;51.756;-2.556;2023-07-31T05:09:14;1.40;;;1.30;;
47025;SDS011;32783;51.756;-2.556;2023-07-31T05:11:39;1.50;;;1.20;;
47025;SDS011;32783;51.756;-2.556;2023-07-31T05:14:05;1.42;;;1.27;;
47025;SDS011;32783;51.756;-2.556;2023-07-31T05:16:31;1.13;;;1.02;;
47025;SDS011;32783;51.756;-2.556;2023-07-31T05:18:56;1.20;;;1.00;;
47025;SDS011;32783;51.756;-2.556;2023-07-31T05:21:21;1.08;;;0.93;;
47025;SDS011;32783;51.756;-2.556;2023-07-31T05:23:47;1.20;;;1.10;;
47025;SDS011;32783;51.756;-2.556;2023-07-31T05:26:13;1.42;;;1.20;;
47025;SDS011;32783;51.756;-2.556;2023-07-31T05:28:38;1.52;;;1.20;;
47025;SDS011;32783;51.756;-2.556;2023-07-31T05:31:04;1.13;;;0.93;;
47025;SDS011;32783;51.756;-2.556;2023-07-31T05:33:30;1.15;;;1.05;;
47025;SDS011;32783;51.756;-2.556;2023-07-31T05:35:56;1.23;;;1.13;;
47025;SDS011;32783;51.756;-2.556;2023-07-31T05:38:21;1.38;;;1.27;;
47025;SDS011;32783;51.756;-2.556;2023-07-31T05:40:47;1.45;;;1.35;;
47025;SDS011;32783;51.756;-2.556;2023-07-31T05:43:13;1.20;;;1.10;;
47025;SDS011;32783;51.756;-2.556;2023-07-31T05:45:38;1.60;;;1.50;;
47025;SDS011;32783;51.756;-2.556;2023-07-31T05:48:05;1.30;;;1.15;;
47025;SDS011;32783;51.756;-2.556;2023-07-31T05:50:31;1.50;;;1.40;;
47025;SDS011;32783;51.756;-2.556;2023-07-31T05:52:56;1.17;;;1.08;;
47025;SDS011;32783;51.756;-2.556;2023-07-31T05:55:22;1.40;;;1.30;;
47025;SDS011;32783;51.756;-2.556;2023-07-31T05:57:48;1.50;;;1.23;;
47025;SDS011;32783;51.756;-2.556;2023-07-31T06:00:13;1.40;;;1.30;;
47025;SDS011;32783;51.756;-2.556;2023-07-31T06:02:39;2.75;;;1.52;;
47025;SDS011;32783;51.756;-2.556;2023-07-31T06:05:04;1.55;;;1.15;;
47025;SDS011;32783;51.756;-2.556;2023-07-31T06:07:31;1.30;;;1.20;;
47025;SDS011;32783;51.756;-2.556;2023-07-31T06:09:56;1.80;;;1.58;;
47025;SDS011;32783;51.756;-2.556;2023-07-31T06:12:27;1.30;;;1.20;;
47025;SDS011;32783;51.756;-2.556;2023-07-31T06:14:52;1.58;;;1.40;;
47025;SDS011;32783;51.756;-2.556;2023-07-31T06:17:17;1.65;;;1.55;;
47025;SDS011;32783;51.756;-2.556;2023-07-31T06:19:43;2.55;;;1.48;;
47025;SDS011;32783;51.756;-2.556;2023-07-31T06:22:08;1.65;;;1.45;;
47025;SDS011;32783;51.756;-2.556;2023-07-31T06:24:34;1.48;;;1.35;;
47025;SDS011;32783;51.756;-2.556;2023-07-31T06:26:59;2.20;;;1.42;;
47025;SDS011;32783;51.756;-2.556;2023-07-31T06:29:24;1.95;;;1.40;;
47025;SDS011;32783;51.756;-2.556;2023-07-31T06:31:50;3.00;;;1.50;;
47025;SDS011;32783;51.756;-2.556;2023-07-31T06:34:15;1.98;;;1.65;;
47025;SDS011;32783;51.756;-2.556;2023-07-31T06:36:41;3.25;;;1.80;;
47025;SDS011;32783;51.756;-2.556;2023-07-31T06:39:06;1.60;;;1.50;;
47025;SDS011;32783;51.756;-2.556;2023-07-31T06:41:32;1.70;;;1.58;;
47025;SDS011;32783;51.756;-2.556;2023-07-31T06:43:57;1.63;;;1.50;;
47025;SDS011;32783;51.756;-2.556;2023-07-31T06:46:22;1.70;;;1.60;;
47025;SDS011;32783;51.756;-2.556;2023-07-31T06:48:48;1.88;;;1.48;;
47025;SDS011;32783;51.756;-2.556;2023-07-31T06:51:13;1.92;;;1.40;;
47025;SDS011;32783;51.756;-2.556;2023-07-31T06:53:38;1.67;;;1.50;;
47025;SDS011;32783;51.756;-2.556;2023-07-31T06:56:04;2.10;;;1.90;;
47025;SDS011;32783;51.756;-2.556;2023-07-31T06:58:29;1.75;;;1.63;;
47025;SDS011;32783;51.756;-2.556;2023-07-31T07:00:54;1.88;;;1.50;;
47025;SDS011;32783;51.756;-2.556;2023-07-31T07:03:20;1.98;;;1.70;;
47025;SDS011;32783;51.756;-2.556;2023-07-31T07:05:45;1.95;;;1.60;;
47025;SDS011;32783;51.756;-2.556;2023-07-31T07:08:11;1.65;;;1.42;;
47025;SDS011;32783;51.756;-2.556;2023-07-31T07:10:36;2.33;;;1.60;;
47025;SDS011;32783;51.756;-2.556;2023-07-31T07:13:02;2.47;;;1.70;;
47025;SDS011;32783;51.756;-2.556;2023-07-31T07:15:27;1.98;;;1.70;;
47025;SDS011;32783;51.756;-2.556;2023-07-31T07:17:53;1.70;;;1.55;;
47025;SDS011;32783;51.756;-2.556;2023-07-31T07:20:19;2.53;;;1.88;;
47025;SDS011;32783;51.756;-2.556;2023-07-31T07:22:45;2.50;;;2.00;;
47025;SDS011;32783;51.756;-2.556;2023-07-31T07:25:10;3.70;;;1.90;;
47025;SDS011;32783;51.756;-2.556;2023-07-31T07:27:36;1.60;;;1.42;;
47025;SDS011;32783;51.756;-2.556;2023-07-31T07:30:01;2.60;;;2.10;;
47025;SDS011;32783;51.756;-2.556;2023-07-31T07:32:27;1.88;;;1.65;;
47025;SDS011;32783;51.756;-2.556;2023-07-31T07:34:52;2.30;;;1.70;;
47025;SDS011;32783;51.756;-2.556;2023-07-31T07:37:17;1.88;;;1.63;;
47025;SDS011;32783;51.756;-2.556;2023-07-31T07:39:43;1.67;;;1.58;;
47025;SDS011;32783;51.756;-2.556;2023-07-31T07:42:08;2.25;;;1.70;;
47025;SDS011;32783;51.756;-2.556;2023-07-31T07:44:34;1.90;;;1.50;;
47025;SDS011;32783;51.756;-2.556;2023-07-31T07:46:59;1.83;;;1.50;;
47025;SDS011;32783;51.756;-2.556;2023-07-31T07:49:24;3.05;;;1.88;;
47025;SDS011;32783;51.756;-2.556;2023-07-31T07:51:50;3.60;;;1.70;;
47025;SDS011;32783;51.756;-2.556;2023-07-31T07:54:15;2.92;;;1.65;;
47025;SDS011;32783;51.756;-2.556;2023-07-31T07:56:46;1.92;;;1.42;;
47025;SDS011;32783;51.756;-2.556;2023-07-31T07:59:11;2.50;;;1.95;;
47025;SDS011;32783;51.756;-2.556;2023-07-31T08:01:36;1.63;;;1.50;;
47025;SDS011;32783;51.756;-2.556;2023-07-31T08:04:02;2.00;;;1.80;;
47025;SDS011;32783;51.756;-2.556;2023-07-31T08:06:27;3.03;;;1.92;;
47025;SDS011;32783;51.756;-2.556;2023-07-31T08:08:54;1.60;;;1.50;;
47025;SDS011;32783;51.756;-2.556;2023-07-31T08:11:20;2.13;;;1.30;;
47025;SDS011;32783;51.756;-2.556;2023-07-31T08:13:46;3.10;;;2.13;;
47025;SDS011;32783;51.756;-2.556;2023-07-31T08:16:11;3.75;;;1.70;;
47025;SDS011;32783;51.756;-2.556;2023-07-31T08:18:36;4.03;;;2.35;;
47025;SDS011;32783;51.756;-2.556;2023-07-31T08:21:02;3.03;;;1.80;;
47025;SDS011;32783;51.756;-2.556;2023-07-31T08:23:28;2.65;;;1.65;;
47025;SDS011;32783;51.756;-2.556;2023-07-31T08:25:53;3.47;;;1.95;;
47025;SDS011;32783;51.756;-2.556;2023-07-31T08:28:18;2.97;;;1.60;;
47025;SDS011;32783;51.756;-2.556;2023-07-31T08:30:44;2.72;;;2.03;;
47025;SDS011;32783;51.756;-2.556;2023-07-31T08:33:10;2.40;;;1.98;;
47025;SDS011;32783;51.756;-2.556;2023-07-31T08:35:36;4.78;;;2.08;;
47025;SDS011;32783;51.756;-2.556;2023-07-31T08:38:01;2.25;;;1.70;;
47025;SDS011;32783;51.756;-2.556;2023-07-31T08:40:27;4.15;;;1.95;;
47025;SDS011;32783;51.756;-2.556;2023-07-31T08:42:54;2.45;;;1.77;;
47025;SDS011;32783;51.756;-2.556;2023-07-31T08:45:21;3.50;;;2.33;;
47025;SDS011;32783;51.756;-2.556;2023-07-31T08:47:49;3.50;;;1.90;;
47025;SDS011;32783;51.756;-2.556;2023-07-31T08:50:17;3.65;;;1.63;;
47025;SDS011;32783;51.756;-2.556;2023-07-31T08:52:45;2.03;;;1.75;;
47025;SDS011;32783;51.756;-2.556;2023-07-31T08:55:11;4.43;;;2.15;;
47025;SDS011;32783;51.756;-2.556;2023-07-31T08:57:37;4.20;;;1.90;;
47025;SDS011;32783;51.756;-2.556;2023-07-31T09:00:04;3.20;;;1.92;;
47025;SDS011;32783;51.756;-2.556;2023-07-31T09:03:18;3.22;;;1.70;;
47025;SDS011;32783;51.756;-2.556;2023-07-31T09:05:23;2.78;;;1.90;;
47025;SDS011;32783;51.756;-2.556;2023-07-31T09:07:49;2.58;;;1.83;;
47025;SDS011;32783;51.756;-2.556;2023-07-31T09:10:15;2.38;;;1.75;;
47025;SDS011;32783;51.756;-2.556;2023-07-31T09:12:40;2.20;;;1.88;;
47025;SDS011;32783;51.756;-2.556;2023-07-31T09:15:07;2.03;;;1.60;;
47025;SDS011;32783;51.756;-2.556;2023-07-31T09:17:34;3.58;;;1.95;;
47025;SDS011;32783;51.756;-2.556;2023-07-31T09:20:17;2.60;;;1.98;;
47025;SDS011;32783;51.756;-2.556;2023-07-31T09:22:44;2.08;;;1.88;;
47025;SDS011;32783;51.756;-2.556;2023-07-31T09:25:20;4.95;;;2.78;;
47025;SDS011;32783;51.756;-2.556;2023-07-31T09:30:12;3.85;;;2.10;;
47025;SDS011;32783;51.756;-2.556;2023-07-31T09:32:37;2.65;;;2.13;;
47025;SDS011;32783;51.756;-2.556;2023-07-31T09:35:12;2.40;;;1.75;;
47025;SDS011;32783;51.756;-2.556;2023-07-31T09:37:53;3.45;;;1.77;;
47025;SDS011;32783;51.756;-2.556;2023-07-31T09:40:52;2.72;;;2.03;;
47025;SDS011;32783;51.756;-2.556;2023-07-31T09:43:12;2.45;;;2.10;;
47025;SDS011;32783;51.756;-2.556;2023-07-31T09:45:46;3.20;;;2.33;;
47025;SDS011;32783;51.756;-2.556;2023-07-31T09:48:16;2.85;;;2.08;;
47025;SDS011;32783;51.756;-2.556;2023-07-31T09:50:43;2.25;;;2.00;;
47025;SDS011;32783;51.756;-2.556;2023-07-31T09:53:09;2.95;;;2.63;;
47025;SDS011;32783;51.756;-2.556;2023-07-31T09:55:35;3.38;;;2.00;;
47025;SDS011;32783;51.756;-2.556;2023-07-31T09:58:03;3.22;;;1.98;;
47025;SDS011;32783;51.756;-2.556;2023-07-31T10:00:29;2.80;;;2.20;;
47025;SDS011;32783;51.756;-2.556;2023-07-31T10:02:55;3.42;;;2.38;;
47025;SDS011;32783;51.756;-2.556;2023-07-31T10:05:23;3.35;;;2.78;;
47025;SDS011;32783;51.756;-2.556;2023-07-31T10:08:01;3.58;;;2.35;;
47025;SDS011;32783;51.756;-2.556;2023-07-31T10:10:27;3.25;;;2.22;;
47025;SDS011;32783;51.756;-2.556;2023-07-31T10:12:53;2.50;;;2.30;;
47025;SDS011;32783;51.756;-2.556;2023-07-31T10:15:19;3.35;;;2.38;;
47025;SDS011;32783;51.756;-2.556;2023-07-31T10:17:46;3.88;;;2.55;;
47025;SDS011;32783;51.756;-2.556;2023-07-31T10:20:13;3.70;;;2.45;;
47025;SDS011;32783;51.756;-2.556;2023-07-31T10:22:41;5.47;;;3.28;;
47025;SDS011;32783;51.756;-2.556;2023-07-31T10:25:07;3.95;;;3.08;;
47025;SDS011;32783;51.756;-2.556;2023-07-31T10:27:34;6.57;;;3.15;;
47025;SDS011;32783;51.756;-2.556;2023-07-31T10:30:01;4.70;;;2.58;;
47025;SDS011;32783;51.756;-2.556;2023-07-31T10:32:29;3.00;;;2.63;;
47025;SDS011;32783;51.756;-2.556;2023-07-31T10:34:54;4.07;;;2.55;;
47025;SDS011;32783;51.756;-2.556;2023-07-31T10:37:24;4.68;;;3.08;;
47025;SDS011;32783;51.756;-2.556;2023-07-31T10:39:56;3.15;;;2.58;;
47025;SDS011;32783;51.756;-2.556;2023-07-31T10:45:07;12.80;;;3.65;;
47025;SDS011;32783;51.756;-2.556;2023-07-31T10:47:36;5.47;;;3.38;;
47025;SDS011;32783;51.756;-2.556;2023-07-31T10:52:48;3.92;;;2.78;;
47025;SDS011;32783;51.756;-2.556;2023-07-31T10:58:11;5.45;;;2.72;;
47025;SDS011;32783;51.756;-2.556;2023-07-31T11:00:38;2.83;;;2.38;;
47025;SDS011;32783;51.756;-2.556;2023-07-31T11:03:06;7.80;;;3.28;;
47025;SDS011;32783;51.756;-2.556;2023-07-31T11:08:29;4.60;;;3.20;;
47025;SDS011;32783;51.756;-2.556;2023-07-31T11:13:31;4.13;;;3.17;;
47025;SDS011;32783;51.756;-2.556;2023-07-31T11:15:57;6.78;;;3.53;;
47025;SDS011;32783;51.756;-2.556;2023-07-31T11:18:23;7.38;;;3.47;;
47025;SDS011;32783;51.756;-2.556;2023-07-31T11:20:48;3.60;;;2.70;;
47025;SDS011;32783;51.756;-2.556;2023-07-31T11:23:15;4.57;;;2.78;;
47025;SDS011;32783;51.756;-2.556;2023-07-31T11:25:41;4.35;;;2.85;;
47025;SDS011;32783;51.756;-2.556;2023-07-31T11:28:09;4.45;;;2.38;;
47025;SDS011;32783;51.756;-2.556;2023-07-31T11:30:36;4.93;;;3.05;;
47025;SDS011;32783;51.756;-2.556;2023-07-31T11:33:02;3.80;;;2.67;;
47025;SDS011;32783;51.756;-2.556;2023-07-31T11:35:35;5.10;;;2.80;;
47025;SDS011;32783;51.756;-2.556;2023-07-31T11:38:10;4.43;;;3.03;;
47025;SDS011;32783;51.756;-2.556;2023-07-31T11:40:42;4.13;;;2.70;;
47025;SDS011;32783;51.756;-2.556;2023-07-31T11:43:08;3.60;;;2.83;;
47025;SDS011;32783;51.756;-2.556;2023-07-31T11:45:34;4.20;;;2.75;;
47025;SDS011;32783;51.756;-2.556;2023-07-31T11:48:03;3.67;;;2.85;;
47025;SDS011;32783;51.756;-2.556;2023-07-31T11:50:28;4.07;;;2.92;;
47025;SDS011;32783;51.756;-2.556;2023-07-31T11:52:59;4.43;;;2.78;;
47025;SDS011;32783;51.756;-2.556;2023-07-31T11:55:26;5.07;;;2.70;;
47025;SDS011;32783;51.756;-2.556;2023-07-31T11:57:52;3.92;;;2.53;;
47025;SDS011;32783;51.756;-2.556;2023-07-31T12:00:20;4.30;;;2.30;;
47025;SDS011;32783;51.756;-2.556;2023-07-31T12:02:46;3.25;;;2.50;;
47025;SDS011;32783;51.756;-2.556;2023-07-31T12:05:12;3.90;;;2.75;;
47025;SDS011;32783;51.756;-2.556;2023-07-31T12:10:22;3.90;;;2.42;;
47025;SDS011;32783;51.756;-2.556;2023-07-31T12:12:55;5.00;;;3.05;;
47025;SDS011;32783;51.756;-2.556;2023-07-31T12:20:25;4.70;;;2.30;;
47025;SDS011;32783;51.756;-2.556;2023-07-31T12:22:51;3.38;;;2.47;;
47025;SDS011;32783;51.756;-2.556;2023-07-31T12:25:16;3.63;;;2.63;;
47025;SDS011;32783;51.756;-2.556;2023-07-31T12:27:44;3.90;;;2.63;;
47025;SDS011;32783;51.756;-2.556;2023-07-31T12:30:29;8.80;;;2.67;;
47025;SDS011;32783;51.756;-2.556;2023-07-31T12:32:56;5.68;;;2.85;;
47025;SDS011;32783;51.756;-2.556;2023-07-31T12:35:21;5.28;;;2.63;;
47025;SDS011;32783;51.756;-2.556;2023-07-31T12:37:47;3.05;;;2.53;;
47025;SDS011;32783;51.756;-2.556;2023-07-31T12:40:12;3.65;;;2.45;;
47025;SDS011;32783;51.756;-2.556;2023-07-31T12:42:37;3.60;;;2.50;;
47025;SDS011;32783;51.756;-2.556;2023-07-31T12:45:03;4.43;;;3.05;;
47025;SDS011;32783;51.756;-2.556;2023-07-31T12:47:29;3.67;;;2.42;;
47025;SDS011;32783;51.756;-2.556;2023-07-31T12:49:55;3.53;;;2.38;;
47025;SDS011;32783;51.756;-2.556;2023-07-31T12:52:20;3.83;;;2.40;;
47025;SDS011;32783;51.756;-2.556;2023-07-31T12:54:46;3.60;;;2.40;;
47025;SDS011;32783;51.756;-2.556;2023-07-31T12:57:11;2.88;;;2.15;;
47025;SDS011;32783;51.756;-2.556;2023-07-31T12:59:36;3.47;;;2.88;;
47025;SDS011;32783;51.756;-2.556;2023-07-31T13:02:02;3.33;;;2.38;;
47025;SDS011;32783;51.756;-2.556;2023-07-31T13:04:27;4.00;;;2.63;;
47025;SDS011;32783;51.756;-2.556;2023-07-31T13:06:52;2.35;;;1.83;;
47025;SDS011;32783;51.756;-2.556;2023-07-31T13:09:18;3.35;;;2.47;;
47025;SDS011;32783;51.756;-2.556;2023-07-31T13:11:43;3.63;;;2.80;;
47025;SDS011;32783;51.756;-2.556;2023-07-31T13:14:08;4.18;;;2.13;;
47025;SDS011;32783;51.756;-2.556;2023-07-31T13:16:34;4.53;;;2.08;;
47025;SDS011;32783;51.756;-2.556;2023-07-31T13:18:59;6.20;;;2.80;;
47025;SDS011;32783;51.756;-2.556;2023-07-31T13:21:24;2.58;;;2.38;;
47025;SDS011;32783;51.756;-2.556;2023-07-31T13:23:50;3.67;;;2.67;;
47025;SDS011;32783;51.756;-2.556;2023-07-31T13:26:15;4.35;;;2.33;;
47025;SDS011;32783;51.756;-2.556;2023-07-31T13:28:40;4.38;;;2.80;;
47025;SDS011;32783;51.756;-2.556;2023-07-31T13:31:06;4.00;;;2.70;;
47025;SDS011;32783;51.756;-2.556;2023-07-31T13:33:31;4.22;;;2.85;;
47025;SDS011;32783;51.756;-2.556;2023-07-31T13:35:57;3.53;;;2.92;;
47025;SDS011;32783;51.756;-2.556;2023-07-31T13:38:22;4.00;;;2.50;;
47025;SDS011;32783;51.756;-2.556;2023-07-31T13:40:48;4.68;;;3.08;;
47025;SDS011;32783;51.756;-2.556;2023-07-31T13:43:13;6.72;;;2.78;;
47025;SDS011;32783;51.756;-2.556;2023-07-31T13:45:38;10.43;;;3.15;;
47025;SDS011;32783;51.756;-2.556;2023-07-31T13:48:04;4.35;;;2.45;;
47025;SDS011;32783;51.756;-2.556;2023-07-31T13:50:29;4.20;;;2.25;;
47025;SDS011;32783;51.756;-2.556;2023-07-31T13:52:55;5.13;;;2.80;;
47025;SDS011;32783;51.756;-2.556;2023-07-31T13:55:21;3.30;;;2.03;;
47025;SDS011;32783;51.756;-2.556;2023-07-31T13:57:47;3.78;;;2.65;;
47025;SDS011;32783;51.756;-2.556;2023-07-31T14:00:12;3.90;;;2.55;;
47025;SDS011;32783;51.756;-2.556;2023-07-31T14:02:38;2.85;;;2.30;;
47025;SDS011;32783;51.756;-2.556;2023-07-31T14:05:04;4.32;;;2.42;;
47025;SDS011;32783;51.756;-2.556;2023-07-31T14:07:31;2.53;;;1.90;;
47025;SDS011;32783;51.756;-2.556;2023-07-31T14:09:57;3.50;;;2.38;;
47025;SDS011;32783;51.756;-2.556;2023-07-31T14:12:23;3.15;;;2.40;;
47025;SDS011;32783;51.756;-2.556;2023-07-31T14:14:48;3.22;;;2.45;;
47025;SDS011;32783;51.756;-2.556;2023-07-31T14:17:13;3.17;;;2.40;;
47025;SDS011;32783;51.756;-2.556;2023-07-31T14:19:39;3.75;;;2.20;;
47025;SDS011;32783;51.756;-2.556;2023-07-31T14:22:04;6.35;;;2.72;;
47025;SDS011;32783;51.756;-2.556;2023-07-31T14:24:30;3.28;;;2.33;;
47025;SDS011;32783;51.756;-2.556;2023-07-31T14:26:56;3.53;;;2.08;;
47025;SDS011;32783;51.756;-2.556;2023-07-31T14:29:21;3.70;;;2.15;;
47025;SDS011;32783;51.756;-2.556;2023-07-31T14:31:47;3.20;;;2.50;;
47025;SDS011;32783;51.756;-2.556;2023-07-31T14:34:12;3.22;;;2.10;;
47025;SDS011;32783;51.756;-2.556;2023-07-31T14:36:37;4.07;;;2.25;;
47025;SDS011;32783;51.756;-2.556;2023-07-31T14:39:03;6.70;;;2.72;;
47025;SDS011;32783;51.756;-2.556;2023-07-31T14:41:28;3.38;;;2.42;;
47025;SDS011;32783;51.756;-2.556;2023-07-31T14:43:54;3.20;;;2.53;;
47025;SDS011;32783;51.756;-2.556;2023-07-31T14:46:20;3.13;;;2.35;;
47025;SDS011;32783;51.756;-2.556;2023-07-31T14:48:45;4.72;;;2.97;;
47025;SDS011;32783;51.756;-2.556;2023-07-31T14:51:10;3.22;;;2.58;;
47025;SDS011;32783;51.756;-2.556;2023-07-31T14:53:36;3.70;;;2.42;;
47025;SDS011;32783;51.756;-2.556;2023-07-31T14:56:01;2.47;;;2.00;;
47025;SDS011;32783;51.756;-2.556;2023-07-31T14:58:27;4.85;;;2.40;;
47025;SDS011;32783;51.756;-2.556;2023-07-31T15:00:52;3.50;;;2.83;;